sensor_id;sensor_type;location;lat;lon;timestamp;temperature;humidity
28845;DHT22;15976;47.938;7.758;2023-07-31T00:00:53;19.30;59.80
28845;DHT22;15976;47.938;7.758;2023-07-31T00:03:21;19.30;59.90
28845;DHT22;15976;47.938;7.758;2023-07-31T00:05:48;19.20;59.90
28845;DHT22;15976;47.938;7.758;2023-07-31T00:08:15;19.20;60.10
28845;DHT22;15976;47.938;7.758;2023-07-31T00:10:42;19.20;60.20
28845;DHT22;15976;47.938;7.758;2023-07-31T00:13:09;19.10;60.20
28845;DHT22;15976;47.938;7.758;2023-07-31T00:15:37;19.10;60.30
28845;DHT22;15976;47.938;7.758;2023-07-31T00:18:07;19.10;60.40
28845;DHT22;15976;47.938;7.758;2023-07-31T00:20:38;19.10;60.50
28845;DHT22;15976;47.938;7.758;2023-07-31T00:23:05;19.00;60.60
28845;DHT22;15976;47.938;7.758;2023-07-31T00:25:32;19.00;60.50
28845;DHT22;15976;47.938;7.758;2023-07-31T00:27:59;19.00;60.40
28845;DHT22;15976;47.938;7.758;2023-07-31T00:30:26;18.90;60.30
28845;DHT22;15976;47.938;7.758;2023-07-31T00:32:53;18.90;60.40
28845;DHT22;15976;47.938;7.758;2023-07-31T00:35:21;18.90;60.40
28845;DHT22;15976;47.938;7.758;2023-07-31T00:37:48;18.90;60.40
28845;DHT22;15976;47.938;7.758;2023-07-31T00:40:16;18.80;60.40
28845;DHT22;15976;47.938;7.758;2023-07-31T00:42:43;18.80;60.40
28845;DHT22;15976;47.938;7.758;2023-07-31T00:45:10;18.80;60.40
28845;DHT22;15976;47.938;7.758;2023-07-31T00:47:37;18.70;60.40
28845;DHT22;15976;47.938;7.758;2023-07-31T00:50:09;18.60;60.40
28845;DHT22;15976;47.938;7.758;2023-07-31T00:52:38;18.60;60.60
28845;DHT22;15976;47.938;7.758;2023-07-31T00:55:05;18.60;60.80
28845;DHT22;15976;47.938;7.758;2023-07-31T00:57:36;18.60;60.70
28845;DHT22;15976;47.938;7.758;2023-07-31T01:00:05;18.60;60.70
28845;DHT22;15976;47.938;7.758;2023-07-31T01:02:33;18.60;60.70
28845;DHT22;15976;47.938;7.758;2023-07-31T01:05:02;18.60;60.80
28845;DHT22;15976;47.938;7.758;2023-07-31T01:07:50;18.60;60.80
28845;DHT22;15976;47.938;7.758;2023-07-31T01:10:23;18.50;60.70
28845;DHT22;15976;47.938;7.758;2023-07-31T01:12:51;18.50;60.60
28845;DHT22;15976;47.938;7.758;2023-07-31T01:15:23;18.50;60.90
28845;DHT22;15976;47.938;7.758;2023-07-31T01:17:50;18.50;60.90
28845;DHT22;15976;47.938;7.758;2023-07-31T01:20:21;18.50;60.80
28845;DHT22;15976;47.938;7.758;2023-07-31T01:23:14;18.50;60.70
28845;DHT22;15976;47.938;7.758;2023-07-31T01:29:03;18.40;60.70
28845;DHT22;15976;47.938;7.758;2023-07-31T01:31:33;18.30;60.70
28845;DHT22;15976;47.938;7.758;2023-07-31T01:34:01;18.30;60.60
28845;DHT22;15976;47.938;7.758;2023-07-31T01:36:33;18.30;60.50
28845;DHT22;15976;47.938;7.758;2023-07-31T01:39:37;18.30;60.40
28845;DHT22;15976;47.938;7.758;2023-07-31T01:42:04;18.30;60.40
28845;DHT22;15976;47.938;7.758;2023-07-31T01:44:31;18.20;60.30
28845;DHT22;15976;47.938;7.758;2023-07-31T01:46:59;18.20;60.20
28845;DHT22;15976;47.938;7.758;2023-07-31T01:49:27;18.20;60.00
28845;DHT22;15976;47.938;7.758;2023-07-31T01:51:54;18.20;60.00
28845;DHT22;15976;47.938;7.758;2023-07-31T01:54:25;18.10;59.90
28845;DHT22;15976;47.938;7.758;2023-07-31T01:56:52;18.10;59.90
28845;DHT22;15976;47.938;7.758;2023-07-31T01:59:19;18.10;59.90
28845;DHT22;15976;47.938;7.758;2023-07-31T02:01:46;18.10;60.20
28845;DHT22;15976;47.938;7.758;2023-07-31T02:04:14;18.00;60.10
28845;DHT22;15976;47.938;7.758;2023-07-31T02:06:43;18.00;60.20
28845;DHT22;15976;47.938;7.758;2023-07-31T02:09:10;18.00;60.20
28845;DHT22;15976;47.938;7.758;2023-07-31T02:11:37;18.00;60.10
28845;DHT22;15976;47.938;7.758;2023-07-31T02:14:05;17.90;59.80
28845;DHT22;15976;47.938;7.758;2023-07-31T02:16:32;17.90;60.00
28845;DHT22;15976;47.938;7.758;2023-07-31T02:19:07;18.00;60.10
28845;DHT22;15976;47.938;7.758;2023-07-31T02:21:34;17.90;59.90
28845;DHT22;15976;47.938;7.758;2023-07-31T02:24:10;17.90;59.90
28845;DHT22;15976;47.938;7.758;2023-07-31T02:26:37;17.90;60.00
28845;DHT22;15976;47.938;7.758;2023-07-31T02:29:04;17.90;59.80
28845;DHT22;15976;47.938;7.758;2023-07-31T02:31:31;17.90;59.50
28845;DHT22;15976;47.938;7.758;2023-07-31T02:34:02;17.90;59.30
28845;DHT22;15976;47.938;7.758;2023-07-31T02:36:28;17.90;59.20
28845;DHT22;15976;47.938;7.758;2023-07-31T02:38:55;17.90;59.00
28845;DHT22;15976;47.938;7.758;2023-07-31T02:41:23;17.90;58.70
28845;DHT22;15976;47.938;7.758;2023-07-31T02:43:49;17.90;58.60
28845;DHT22;15976;47.938;7.758;2023-07-31T02:46:17;18.00;58.40
28845;DHT22;15976;47.938;7.758;2023-07-31T02:48:44;17.90;58.20
28845;DHT22;15976;47.938;7.758;2023-07-31T02:51:11;18.00;58.20
28845;DHT22;15976;47.938;7.758;2023-07-31T02:53:38;18.00;58.10
28845;DHT22;15976;47.938;7.758;2023-07-31T02:56:05;17.90;58.10
28845;DHT22;15976;47.938;7.758;2023-07-31T02:58:32;18.00;58.10
28845;DHT22;15976;47.938;7.758;2023-07-31T03:00:59;18.00;58.10
28845;DHT22;15976;47.938;7.758;2023-07-31T03:03:26;18.00;58.00
28845;DHT22;15976;47.938;7.758;2023-07-31T03:05:53;18.00;58.00
28845;DHT22;15976;47.938;7.758;2023-07-31T03:08:21;18.00;58.20
28845;DHT22;15976;47.938;7.758;2023-07-31T03:10:48;18.00;58.10
28845;DHT22;15976;47.938;7.758;2023-07-31T03:13:16;18.00;58.30
28845;DHT22;15976;47.938;7.758;2023-07-31T03:15:43;18.00;58.50
28845;DHT22;15976;47.938;7.758;2023-07-31T03:18:10;18.00;58.40
28845;DHT22;15976;47.938;7.758;2023-07-31T03:20:41;17.90;58.50
28845;DHT22;15976;47.938;7.758;2023-07-31T03:23:08;17.90;58.40
28845;DHT22;15976;47.938;7.758;2023-07-31T03:25:35;17.90;58.30
28845;DHT22;15976;47.938;7.758;2023-07-31T03:28:02;18.00;58.30
28845;DHT22;15976;47.938;7.758;2023-07-31T03:30:29;18.00;58.80
28845;DHT22;15976;47.938;7.758;2023-07-31T03:32:57;17.90;58.20
28845;DHT22;15976;47.938;7.758;2023-07-31T03:35:24;18.00;58.20
28845;DHT22;15976;47.938;7.758;2023-07-31T03:37:51;18.00;58.20
28845;DHT22;15976;47.938;7.758;2023-07-31T03:40:18;18.00;58.20
28845;DHT22;15976;47.938;7.758;2023-07-31T03:42:45;18.00;58.10
28845;DHT22;15976;47.938;7.758;2023-07-31T03:45:12;18.00;58.10
28845;DHT22;15976;47.938;7.758;2023-07-31T03:47:39;18.00;58.10
28845;DHT22;15976;47.938;7.758;2023-07-31T03:50:06;18.00;58.10
28845;DHT22;15976;47.938;7.758;2023-07-31T03:52:34;18.00;58.10
28845;DHT22;15976;47.938;7.758;2023-07-31T03:55:01;17.90;58.00
28845;DHT22;15976;47.938;7.758;2023-07-31T03:57:28;18.00;58.00
28845;DHT22;15976;47.938;7.758;2023-07-31T03:59:55;18.00;58.00
28845;DHT22;15976;47.938;7.758;2023-07-31T04:02:22;18.00;58.10
28845;DHT22;15976;47.938;7.758;2023-07-31T04:04:49;17.90;58.10
28845;DHT22;15976;47.938;7.758;2023-07-31T04:07:16;18.00;58.10
28845;DHT22;15976;47.938;7.758;2023-07-31T04:09:43;18.00;58.10
28845;DHT22;15976;47.938;7.758;2023-07-31T04:12:10;18.00;58.10
28845;DHT22;15976;47.938;7.758;2023-07-31T04:14:37;18.00;58.00
28845;DHT22;15976;47.938;7.758;2023-07-31T04:17:04;18.00;58.00
28845;DHT22;15976;47.938;7.758;2023-07-31T04:19:31;18.00;58.00
28845;DHT22;15976;47.938;7.758;2023-07-31T04:21:58;18.00;57.90
28845;DHT22;15976;47.938;7.758;2023-07-31T04:24:25;18.10;57.90
28845;DHT22;15976;47.938;7.758;2023-07-31T04:26:53;18.10;57.80
28845;DHT22;15976;47.938;7.758;2023-07-31T04:29:20;18.10;57.80
28845;DHT22;15976;47.938;7.758;2023-07-31T04:31:48;18.10;57.80
28845;DHT22;15976;47.938;7.758;2023-07-31T04:34:15;18.20;57.90
28845;DHT22;15976;47.938;7.758;2023-07-31T04:36:42;18.20;57.80
28845;DHT22;15976;47.938;7.758;2023-07-31T04:39:09;18.20;57.70
28845;DHT22;15976;47.938;7.758;2023-07-31T04:41:36;18.30;57.60
28845;DHT22;15976;47.938;7.758;2023-07-31T04:44:03;18.30;57.50
28845;DHT22;15976;47.938;7.758;2023-07-31T04:46:30;18.40;57.50
28845;DHT22;15976;47.938;7.758;2023-07-31T04:48:57;18.30;57.40
28845;DHT22;15976;47.938;7.758;2023-07-31T04:51:24;18.40;57.40
28845;DHT22;15976;47.938;7.758;2023-07-31T04:54:21;18.40;57.50
28845;DHT22;15976;47.938;7.758;2023-07-31T04:56:52;18.40;57.40
28845;DHT22;15976;47.938;7.758;2023-07-31T04:59:19;18.40;57.30
28845;DHT22;15976;47.938;7.758;2023-07-31T05:02:06;18.50;57.30
28845;DHT22;15976;47.938;7.758;2023-07-31T05:07:54;18.50;57.30
28845;DHT22;15976;47.938;7.758;2023-07-31T05:10:21;18.50;57.20
28845;DHT22;15976;47.938;7.758;2023-07-31T05:12:48;18.60;57.20
28845;DHT22;15976;47.938;7.758;2023-07-31T05:15:15;18.60;57.20
28845;DHT22;15976;47.938;7.758;2023-07-31T05:17:42;18.70;57.20
28845;DHT22;15976;47.938;7.758;2023-07-31T05:20:09;18.70;57.20
28845;DHT22;15976;47.938;7.758;2023-07-31T05:22:37;18.70;57.20
28845;DHT22;15976;47.938;7.758;2023-07-31T05:25:04;18.70;57.10
28845;DHT22;15976;47.938;7.758;2023-07-31T05:27:32;18.70;57.20
28845;DHT22;15976;47.938;7.758;2023-07-31T05:29:59;18.80;57.20
28845;DHT22;15976;47.938;7.758;2023-07-31T05:32:53;18.80;57.10
28845;DHT22;15976;47.938;7.758;2023-07-31T05:35:25;18.90;57.10
28845;DHT22;15976;47.938;7.758;2023-07-31T05:37:52;18.90;57.00
28845;DHT22;15976;47.938;7.758;2023-07-31T05:40:19;19.00;57.00
28845;DHT22;15976;47.938;7.758;2023-07-31T05:42:46;19.00;56.80
28845;DHT22;15976;47.938;7.758;2023-07-31T05:45:13;19.00;56.80
28845;DHT22;15976;47.938;7.758;2023-07-31T05:47:40;19.00;56.80
28845;DHT22;15976;47.938;7.758;2023-07-31T05:50:10;19.10;56.80
28845;DHT22;15976;47.938;7.758;2023-07-31T05:52:37;19.10;56.90
28845;DHT22;15976;47.938;7.758;2023-07-31T05:55:04;19.10;56.70
28845;DHT22;15976;47.938;7.758;2023-07-31T05:57:31;19.20;56.70
28845;DHT22;15976;47.938;7.758;2023-07-31T05:59:58;19.20;56.70
28845;DHT22;15976;47.938;7.758;2023-07-31T06:02:25;19.20;56.60
28845;DHT22;15976;47.938;7.758;2023-07-31T06:04:53;19.30;56.70
28845;DHT22;15976;47.938;7.758;2023-07-31T06:07:20;19.30;56.60
28845;DHT22;15976;47.938;7.758;2023-07-31T06:09:48;19.30;56.60
28845;DHT22;15976;47.938;7.758;2023-07-31T06:12:15;19.30;56.50
28845;DHT22;15976;47.938;7.758;2023-07-31T06:14:44;19.30;56.50
28845;DHT22;15976;47.938;7.758;2023-07-31T06:17:11;19.40;56.50
28845;DHT22;15976;47.938;7.758;2023-07-31T06:19:39;19.50;56.40
28845;DHT22;15976;47.938;7.758;2023-07-31T06:22:06;19.60;56.10
28845;DHT22;15976;47.938;7.758;2023-07-31T06:24:32;19.70;56.00
28845;DHT22;15976;47.938;7.758;2023-07-31T06:26:59;19.80;55.90
28845;DHT22;15976;47.938;7.758;2023-07-31T06:29:27;19.80;55.80
28845;DHT22;15976;47.938;7.758;2023-07-31T06:31:54;19.80;55.90
28845;DHT22;15976;47.938;7.758;2023-07-31T06:34:24;19.80;56.00
28845;DHT22;15976;47.938;7.758;2023-07-31T06:36:51;19.90;55.90
28845;DHT22;15976;47.938;7.758;2023-07-31T06:39:18;19.90;55.80
28845;DHT22;15976;47.938;7.758;2023-07-31T06:41:45;19.90;55.70
28845;DHT22;15976;47.938;7.758;2023-07-31T06:44:12;20.00;55.50
28845;DHT22;15976;47.938;7.758;2023-07-31T06:46:39;20.10;55.40
28845;DHT22;15976;47.938;7.758;2023-07-31T06:49:07;20.10;55.40
28845;DHT22;15976;47.938;7.758;2023-07-31T06:51:34;20.10;55.30
28845;DHT22;15976;47.938;7.758;2023-07-31T06:54:02;20.10;55.20
28845;DHT22;15976;47.938;7.758;2023-07-31T06:56:29;20.10;55.30
28845;DHT22;15976;47.938;7.758;2023-07-31T06:58:56;20.10;55.30
28845;DHT22;15976;47.938;7.758;2023-07-31T07:01:23;20.30;55.30
28845;DHT22;15976;47.938;7.758;2023-07-31T07:03:51;20.40;54.90
28845;DHT22;15976;47.938;7.758;2023-07-31T07:06:18;20.50;54.60
28845;DHT22;15976;47.938;7.758;2023-07-31T07:08:45;20.60;54.40
28845;DHT22;15976;47.938;7.758;2023-07-31T07:11:12;20.70;55.00
28845;DHT22;15976;47.938;7.758;2023-07-31T07:13:39;20.80;54.40
28845;DHT22;15976;47.938;7.758;2023-07-31T07:16:06;20.80;54.20
28845;DHT22;15976;47.938;7.758;2023-07-31T07:18:33;20.80;54.10
28845;DHT22;15976;47.938;7.758;2023-07-31T07:21:04;20.80;54.10
28845;DHT22;15976;47.938;7.758;2023-07-31T07:23:31;20.90;54.00
28845;DHT22;15976;47.938;7.758;2023-07-31T07:25:59;20.90;53.80
28845;DHT22;15976;47.938;7.758;2023-07-31T07:28:27;21.00;53.30
28845;DHT22;15976;47.938;7.758;2023-07-31T07:30:55;21.10;53.30
28845;DHT22;15976;47.938;7.758;2023-07-31T07:33:22;21.40;53.00
28845;DHT22;15976;47.938;7.758;2023-07-31T07:35:49;21.80;52.40
28845;DHT22;15976;47.938;7.758;2023-07-31T07:38:17;22.10;51.50
28845;DHT22;15976;47.938;7.758;2023-07-31T07:40:46;22.50;50.80
28845;DHT22;15976;47.938;7.758;2023-07-31T07:43:17;22.80;50.20
28845;DHT22;15976;47.938;7.758;2023-07-31T07:45:44;23.20;49.30
28845;DHT22;15976;47.938;7.758;2023-07-31T07:48:11;23.70;48.40
28845;DHT22;15976;47.938;7.758;2023-07-31T07:50:38;24.10;47.40
28845;DHT22;15976;47.938;7.758;2023-07-31T07:53:06;24.30;47.00
28845;DHT22;15976;47.938;7.758;2023-07-31T07:55:33;24.50;46.00
28845;DHT22;15976;47.938;7.758;2023-07-31T07:58:00;24.50;45.60
28845;DHT22;15976;47.938;7.758;2023-07-31T08:00:28;24.30;46.20
28845;DHT22;15976;47.938;7.758;2023-07-31T08:02:56;24.10;46.20
28845;DHT22;15976;47.938;7.758;2023-07-31T08:05:25;23.90;46.70
28845;DHT22;15976;47.938;7.758;2023-07-31T08:07:52;23.60;47.10
28845;DHT22;15976;47.938;7.758;2023-07-31T08:10:19;23.70;47.10
28845;DHT22;15976;47.938;7.758;2023-07-31T08:12:46;24.10;46.50
28845;DHT22;15976;47.938;7.758;2023-07-31T08:15:13;24.10;46.00
28845;DHT22;15976;47.938;7.758;2023-07-31T08:17:40;24.10;46.00
28845;DHT22;15976;47.938;7.758;2023-07-31T08:20:08;23.90;46.70
28845;DHT22;15976;47.938;7.758;2023-07-31T08:22:36;23.80;46.80
28845;DHT22;15976;47.938;7.758;2023-07-31T08:25:03;23.70;47.20
28845;DHT22;15976;47.938;7.758;2023-07-31T08:27:30;23.80;47.60
28845;DHT22;15976;47.938;7.758;2023-07-31T08:29:57;24.20;46.80
28845;DHT22;15976;47.938;7.758;2023-07-31T08:32:24;24.80;45.70
28845;DHT22;15976;47.938;7.758;2023-07-31T08:34:51;25.40;44.20
28845;DHT22;15976;47.938;7.758;2023-07-31T08:37:18;25.90;43.20
28845;DHT22;15976;47.938;7.758;2023-07-31T08:39:45;26.50;42.20
28845;DHT22;15976;47.938;7.758;2023-07-31T08:42:12;26.80;41.10
28845;DHT22;15976;47.938;7.758;2023-07-31T08:44:39;27.20;40.50
28845;DHT22;15976;47.938;7.758;2023-07-31T08:47:07;27.60;39.60
28845;DHT22;15976;47.938;7.758;2023-07-31T08:49:35;27.70;39.20
28845;DHT22;15976;47.938;7.758;2023-07-31T08:52:03;27.80;39.50
28845;DHT22;15976;47.938;7.758;2023-07-31T08:54:30;28.00;38.90
28845;DHT22;15976;47.938;7.758;2023-07-31T08:57:00;28.20;38.50
28845;DHT22;15976;47.938;7.758;2023-07-31T08:59:31;28.50;37.90
28845;DHT22;15976;47.938;7.758;2023-07-31T09:02:03;28.70;37.70
28845;DHT22;15976;47.938;7.758;2023-07-31T09:04:32;28.90;37.50
28845;DHT22;15976;47.938;7.758;2023-07-31T09:07:02;29.20;37.10
28845;DHT22;15976;47.938;7.758;2023-07-31T09:09:31;29.40;36.40
28845;DHT22;15976;47.938;7.758;2023-07-31T09:11:58;29.80;36.30
28845;DHT22;15976;47.938;7.758;2023-07-31T09:14:26;29.90;35.60
28845;DHT22;15976;47.938;7.758;2023-07-31T09:16:55;29.60;36.10
28845;DHT22;15976;47.938;7.758;2023-07-31T09:19:35;29.40;36.60
28845;DHT22;15976;47.938;7.758;2023-07-31T09:22:06;29.40;36.30
28845;DHT22;15976;47.938;7.758;2023-07-31T09:24:34;30.10;35.80
28845;DHT22;15976;47.938;7.758;2023-07-31T09:27:02;30.50;35.10
28845;DHT22;15976;47.938;7.758;2023-07-31T09:29:29;30.80;34.90
28845;DHT22;15976;47.938;7.758;2023-07-31T09:31:56;31.00;34.40
28845;DHT22;15976;47.938;7.758;2023-07-31T09:34:30;31.20;34.00
28845;DHT22;15976;47.938;7.758;2023-07-31T09:37:04;31.30;33.20
28845;DHT22;15976;47.938;7.758;2023-07-31T09:39:32;31.10;33.20
28845;DHT22;15976;47.938;7.758;2023-07-31T09:41:59;31.20;33.80
28845;DHT22;15976;47.938;7.758;2023-07-31T09:44:38;31.60;33.60
28845;DHT22;15976;47.938;7.758;2023-07-31T09:47:06;32.10;32.50
28845;DHT22;15976;47.938;7.758;2023-07-31T09:49:33;32.50;32.20
28845;DHT22;15976;47.938;7.758;2023-07-31T09:52:00;32.80;31.70
28845;DHT22;15976;47.938;7.758;2023-07-31T09:54:28;33.10;31.20
28845;DHT22;15976;47.938;7.758;2023-07-31T09:56:56;33.40;30.90
28845;DHT22;15976;47.938;7.758;2023-07-31T09:59:28;33.30;30.20
28845;DHT22;15976;47.938;7.758;2023-07-31T10:01:56;33.30;30.20
28845;DHT22;15976;47.938;7.758;2023-07-31T10:04:27;33.70;30.70
28845;DHT22;15976;47.938;7.758;2023-07-31T10:06:55;33.90;30.30
28845;DHT22;15976;47.938;7.758;2023-07-31T10:09:24;33.60;30.70
28845;DHT22;15976;47.938;7.758;2023-07-31T10:12:00;33.60;30.90
28845;DHT22;15976;47.938;7.758;2023-07-31T10:14:27;33.70;30.20
28845;DHT22;15976;47.938;7.758;2023-07-31T10:16:57;34.10;30.00
28845;DHT22;15976;47.938;7.758;2023-07-31T10:19:26;34.30;29.50
28845;DHT22;15976;47.938;7.758;2023-07-31T10:21:54;34.20;29.90
28845;DHT22;15976;47.938;7.758;2023-07-31T10:24:24;33.70;29.80
28845;DHT22;15976;47.938;7.758;2023-07-31T10:26:52;33.40;30.80
28845;DHT22;15976;47.938;7.758;2023-07-31T10:29:21;33.70;30.40
28845;DHT22;15976;47.938;7.758;2023-07-31T10:31:49;34.40;30.00
28845;DHT22;15976;47.938;7.758;2023-07-31T10:34:17;35.00;29.30
28845;DHT22;15976;47.938;7.758;2023-07-31T10:36:44;35.10;28.90
28845;DHT22;15976;47.938;7.758;2023-07-31T10:39:35;34.90;28.70
28845;DHT22;15976;47.938;7.758;2023-07-31T10:42:11;34.00;28.90
28845;DHT22;15976;47.938;7.758;2023-07-31T10:44:38;33.30;29.70
28845;DHT22;15976;47.938;7.758;2023-07-31T10:47:07;32.50;30.00
28845;DHT22;15976;47.938;7.758;2023-07-31T10:49:34;31.60;31.20
28845;DHT22;15976;47.938;7.758;2023-07-31T10:52:03;31.40;32.20
28845;DHT22;15976;47.938;7.758;2023-07-31T10:54:30;31.90;32.30
28845;DHT22;15976;47.938;7.758;2023-07-31T10:56:57;32.60;31.60
28845;DHT22;15976;47.938;7.758;2023-07-31T10:59:34;32.50;30.60
28845;DHT22;15976;47.938;7.758;2023-07-31T11:02:01;31.80;31.70
28845;DHT22;15976;47.938;7.758;2023-07-31T11:04:30;31.20;32.40
28845;DHT22;15976;47.938;7.758;2023-07-31T11:07:00;30.70;33.40
28845;DHT22;15976;47.938;7.758;2023-07-31T11:09:29;30.40;34.30
28845;DHT22;15976;47.938;7.758;2023-07-31T11:11:57;30.20;34.50
28845;DHT22;15976;47.938;7.758;2023-07-31T11:14:24;30.00;35.40
28845;DHT22;15976;47.938;7.758;2023-07-31T11:16:51;29.70;35.10
28845;DHT22;15976;47.938;7.758;2023-07-31T11:19:25;29.50;35.60
28845;DHT22;15976;47.938;7.758;2023-07-31T11:21:53;29.20;36.20
28845;DHT22;15976;47.938;7.758;2023-07-31T11:24:20;29.00;37.80
28845;DHT22;15976;47.938;7.758;2023-07-31T11:26:54;28.40;40.30
28845;DHT22;15976;47.938;7.758;2023-07-31T11:29:27;27.90;41.10
28845;DHT22;15976;47.938;7.758;2023-07-31T11:31:54;27.50;41.20
28845;DHT22;15976;47.938;7.758;2023-07-31T11:34:21;27.50;41.00
28845;DHT22;15976;47.938;7.758;2023-07-31T11:36:55;27.90;40.80
28845;DHT22;15976;47.938;7.758;2023-07-31T11:39:22;28.80;39.70
28845;DHT22;15976;47.938;7.758;2023-07-31T11:41:49;29.90;38.20
28845;DHT22;15976;47.938;7.758;2023-07-31T11:44:16;31.30;36.20
28845;DHT22;15976;47.938;7.758;2023-07-31T11:46:57;32.70;34.60
28845;DHT22;15976;47.938;7.758;2023-07-31T11:49:24;34.60;32.70
28845;DHT22;15976;47.938;7.758;2023-07-31T11:51:52;35.60;30.20
28845;DHT22;15976;47.938;7.758;2023-07-31T11:54:19;36.50;29.50
28845;DHT22;15976;47.938;7.758;2023-07-31T11:56:46;37.00;29.20
28845;DHT22;15976;47.938;7.758;2023-07-31T11:59:14;37.60;28.50
28845;DHT22;15976;47.938;7.758;2023-07-31T12:01:41;37.90;27.50
28845;DHT22;15976;47.938;7.758;2023-07-31T12:04:10;38.00;26.90
28845;DHT22;15976;47.938;7.758;2023-07-31T12:06:37;38.10;26.80
28845;DHT22;15976;47.938;7.758;2023-07-31T12:09:05;38.10;26.90
28845;DHT22;15976;47.938;7.758;2023-07-31T12:11:46;37.90;26.80
28845;DHT22;15976;47.938;7.758;2023-07-31T12:14:29;37.60;26.90
28845;DHT22;15976;47.938;7.758;2023-07-31T12:17:00;38.00;26.50
28845;DHT22;15976;47.938;7.758;2023-07-31T12:19:31;38.40;26.10
28845;DHT22;15976;47.938;7.758;2023-07-31T12:22:02;38.70;26.30
28845;DHT22;15976;47.938;7.758;2023-07-31T12:24:39;39.40;25.60
28845;DHT22;15976;47.938;7.758;2023-07-31T12:27:14;39.50;25.00
28845;DHT22;15976;47.938;7.758;2023-07-31T12:29:42;39.10;25.30
28845;DHT22;15976;47.938;7.758;2023-07-31T12:32:22;39.20;25.30
28845;DHT22;15976;47.938;7.758;2023-07-31T12:34:51;39.50;24.90
28845;DHT22;15976;47.938;7.758;2023-07-31T12:37:18;39.80;24.50
28845;DHT22;15976;47.938;7.758;2023-07-31T12:39:45;40.10;24.40
28845;DHT22;15976;47.938;7.758;2023-07-31T12:42:12;40.50;24.10
28845;DHT22;15976;47.938;7.758;2023-07-31T12:44:39;40.90;23.80
28845;DHT22;15976;47.938;7.758;2023-07-31T12:47:06;40.20;23.20
28845;DHT22;15976;47.938;7.758;2023-07-31T12:49:33;39.20;24.20
28845;DHT22;15976;47.938;7.758;2023-07-31T12:52:00;39.30;24.80
28845;DHT22;15976;47.938;7.758;2023-07-31T12:54:27;39.90;24.80
28845;DHT22;15976;47.938;7.758;2023-07-31T12:56:54;40.30;24.70
28845;DHT22;15976;47.938;7.758;2023-07-31T12:59:24;40.50;24.10
28845;DHT22;15976;47.938;7.758;2023-07-31T13:01:51;40.20;24.20
28845;DHT22;15976;47.938;7.758;2023-07-31T13:04:18;39.10;24.80
28845;DHT22;15976;47.938;7.758;2023-07-31T13:06:46;37.90;25.40
28845;DHT22;15976;47.938;7.758;2023-07-31T13:09:12;36.90;26.10
28845;DHT22;15976;47.938;7.758;2023-07-31T13:11:39;36.30;26.70
28845;DHT22;15976;47.938;7.758;2023-07-31T13:14:06;36.50;27.40
28845;DHT22;15976;47.938;7.758;2023-07-31T13:16:33;37.00;26.40
28845;DHT22;15976;47.938;7.758;2023-07-31T13:19:01;37.30;25.70
28845;DHT22;15976;47.938;7.758;2023-07-31T13:21:28;36.90;25.90
28845;DHT22;15976;47.938;7.758;2023-07-31T13:23:55;36.70;26.60
28845;DHT22;15976;47.938;7.758;2023-07-31T13:26:24;36.60;26.40
28845;DHT22;15976;47.938;7.758;2023-07-31T13:28:51;36.50;26.90
28845;DHT22;15976;47.938;7.758;2023-07-31T13:31:18;36.20;27.20
28845;DHT22;15976;47.938;7.758;2023-07-31T13:33:45;35.80;27.40
28845;DHT22;15976;47.938;7.758;2023-07-31T13:36:13;35.30;27.90
28845;DHT22;15976;47.938;7.758;2023-07-31T13:38:40;34.70;28.40
28845;DHT22;15976;47.938;7.758;2023-07-31T13:41:07;34.20;28.80
28845;DHT22;15976;47.938;7.758;2023-07-31T13:43:34;33.60;29.40
28845;DHT22;15976;47.938;7.758;2023-07-31T13:46:01;33.20;29.30
28845;DHT22;15976;47.938;7.758;2023-07-31T13:48:34;32.80;29.50
28845;DHT22;15976;47.938;7.758;2023-07-31T13:51:01;32.80;29.90
28845;DHT22;15976;47.938;7.758;2023-07-31T13:53:29;33.30;29.90
28845;DHT22;15976;47.938;7.758;2023-07-31T13:55:56;34.10;29.50
28845;DHT22;15976;47.938;7.758;2023-07-31T13:58:23;34.90;28.90
28845;DHT22;15976;47.938;7.758;2023-07-31T14:00:50;35.30;28.20
28845;DHT22;15976;47.938;7.758;2023-07-31T14:03:17;35.30;28.10
28845;DHT22;15976;47.938;7.758;2023-07-31T14:05:44;35.20;28.20
28845;DHT22;15976;47.938;7.758;2023-07-31T14:08:11;35.20;28.20
28845;DHT22;15976;47.938;7.758;2023-07-31T14:10:38;35.10;28.70
28845;DHT22;15976;47.938;7.758;2023-07-31T14:13:05;34.90;28.60
28845;DHT22;15976;47.938;7.758;2023-07-31T14:15:32;34.60;29.00
28845;DHT22;15976;47.938;7.758;2023-07-31T14:18:02;34.20;29.20
28845;DHT22;15976;47.938;7.758;2023-07-31T14:20:30;33.80;29.60
28845;DHT22;15976;47.938;7.758;2023-07-31T14:22:57;33.40;30.00
28845;DHT22;15976;47.938;7.758;2023-07-31T14:25:24;33.00;30.10
28845;DHT22;15976;47.938;7.758;2023-07-31T14:27:51;32.70;30.60
28845;DHT22;15976;47.938;7.758;2023-07-31T14:30:18;32.70;31.10
28845;DHT22;15976;47.938;7.758;2023-07-31T14:32:46;32.70;30.80
28845;DHT22;15976;47.938;7.758;2023-07-31T14:35:13;32.60;30.70
28845;DHT22;15976;47.938;7.758;2023-07-31T14:37:42;32.50;31.10
28845;DHT22;15976;47.938;7.758;2023-07-31T14:40:11;32.40;31.40
28845;DHT22;15976;47.938;7.758;2023-07-31T14:42:39;32.10;31.30
28845;DHT22;15976;47.938;7.758;2023-07-31T14:45:07;31.80;31.70
28845;DHT22;15976;47.938;7.758;2023-07-31T14:47:34;31.70;32.10
28845;DHT22;15976;47.938;7.758;2023-07-31T14:50:03;31.90;31.90
28845;DHT22;15976;47.938;7.758;2023-07-31T14:52:30;31.90;32.00
28845;DHT22;15976;47.938;7.758;2023-07-31T14:54:57;32.20;32.20
28845;DHT22;15976;47.938;7.758;2023-07-31T14:57:24;32.60;31.80
28845;DHT22;15976;47.938;7.758;2023-07-31T14:59:53;33.00;31.20
28845;DHT22;15976;47.938;7.758;2023-07-31T15:02:20;33.40;30.60
28845;DHT22;15976;47.938;7.758;2023-07-31T15:04:47;34.00;30.30
28845;DHT22;15976;47.938;7.758;2023-07-31T15:07:14;34.20;30.40
28845;DHT22;15976;47.938;7.758;2023-07-31T15:09:42;34.00;30.00
28845;DHT22;15976;47.938;7.758;2023-07-31T15:12:09;33.90;30.00
28845;DHT22;15976;47.938;7.758;2023-07-31T15:14:36;33.90;30.00
28845;DHT22;15976;47.938;7.758;2023-07-31T15:17:03;34.20;30.00
28845;DHT22;15976;47.938;7.758;2023-07-31T15:19:31;34.50;29.70
28845;DHT22;15976;47.938;7.758;2023-07-31T15:22:02;34.20;29.70
28845;DHT22;15976;47.938;7.758;2023-07-31T15:24:29;33.70;29.90
28845;DHT22;15976;47.938;7.758;2023-07-31T15:26:57;33.50;30.10
28845;DHT22;15976;47.938;7.758;2023-07-31T15:30:14;33.20;29.90
28845;DHT22;15976;47.938;7.758;2023-07-31T15:32:56;32.70;30.40
28845;DHT22;15976;47.938;7.758;2023-07-31T15:35:46;32.40;31.20
28845;DHT22;15976;47.938;7.758;2023-07-31T15:38:58;32.10;31.70
28845;DHT22;15976;47.938;7.758;2023-07-31T15:41:36;31.50;32.00
28845;DHT22;15976;47.938;7.758;2023-07-31T15:44:04;31.00;32.80
28845;DHT22;15976;47.938;7.758;2023-07-31T15:46:32;30.60;33.60